Rio das Flores, Brazil
Current Conditions -  °F | °C
As of 1:00 PM on Wednesday 22 Oct 2014 (Local Time) from SBGL Reporting Station
Broken Clouds Broken Clouds  
Wind Chill: 72°   Ceiling: 3000
Heat Index: 72°   Visibility: 6mi
Dew Point: 59°   Wind: 10mph
Humidity: 64%   Direction: 120°ESE
Pressure: 30.18"   Gusts: NA
Location:  22.17°S, 43.59°W
Report Text: SBGL 221500Z 12009KT 9999 BKN030 BKN040 22/15 Q1022
Loading
Personal Weather Stations






























Interactive Weather Map
Tropical Storm Tracking
New forecast layout! Learn more

10-Day Weather Forecast

Advertisements
Track Severe Weather on mobile